Terminal Aerodrome Forecast
Issued by NWS

Home | Current Version | Previous Version | Text Only | Print | Product List | Glossary On
Versions: 1 2 3 4 5 6 7 8 9 10 11 12 13 14 15 16
000
FTUS46 KSTO 180532
TAFSMF
TAF
KSMF 180532Z 1806/1906 33006KT P6SM SKC
     FM181500 00000KT 5SM HZ SKC
      TEMPO 1815/1818 1SM MIFG SCT002
     FM181900 VRB04KT P6SM FEW035=

USA.gov is the U.S. government's official web portal to all federal, state and local government web resources and services.